Terminal Aerodrome Forecast
Issued by NWS

Home | Current Version | Previous Version | Text Only | Print | Product List | Glossary On
Versions: 1 2 3 4 5 6 7 8 9 10 11 12 13 14 15 16 17 18 19
914
FTUS41 KRLX 100911 AAA
TAFCKB
TAF AMD
KCKB 100911Z 1009/1106 25009KT 1 1/2SM -SHSN OVC015
      TEMPO 1009/1010 3SM -SHSN SCT015 OVC025
     FM101000 25009KT 4SM -SHSN OVC025
     FM101300 25009KT P6SM OVC025
     FM101700 25009KT 6SM -SHSN OVC025
     FM102100 25010G19KT 5SM -SHSN BKN025
     FM110000 25010G21KT 4SM -SHSN OVC015
     FM110200 26010G21KT P6SM OVC015=

USA.gov is the U.S. government's official web portal to all federal, state and local government web resources and services.